Time;durP1;ratioP1;P1;durP2;ratioP2;P2;SDS_P1;SDS_P2;PMS_P1;PMS_P2;Temp;Humidity;BMP_temperature;BMP_pressure;BME280_temperature;BME280_humidity;BME280_pressure;Samples;Min_cycle;Max_cycle;Signal;HPM_P1;HPM_P2
2022/05/01 00:01:50;;;;;;;24.80;9.90;;;;;;;6.27;59.33;100818.57;105510;1276;22663;-63
2022/05/01 00:04:21;;;;;;;32.20;13.60;;;;;;;6.26;59.46;100815.16;105616;1275;24302;-63
2022/05/01 00:06:52;;;;;;;27.90;11.60;;;;;;;6.25;59.74;100816.29;105443;1276;22537;-63
2022/05/01 00:09:24;;;;;;;33.30;14.00;;;;;;;6.24;59.75;100812.13;105451;1274;22543;-62
2022/05/01 00:11:55;;;;;;;30.80;13.20;;;;;;;6.23;59.81;100811.52;105449;1275;22569;-63
2022/05/01 00:14:27;;;;;;;28.20;12.20;;;;;;;6.22;60.01;100807.59;105460;1275;25336;-63
2022/05/01 00:17:01;;;;;;;29.20;10.90;;;;;;;6.21;60.19;100805.88;105422;1276;25366;-62
2022/05/01 00:19:33;;;;;;;31.30;12.80;;;;;;;6.19;60.24;100806.95;105515;1274;24259;-63
2022/05/01 00:22:05;;;;;;;28.80;12.10;;;;;;;6.15;60.47;100802.52;105560;1275;22541;-63
2022/05/01 00:24:37;;;;;;;32.20;12.70;;;;;;;6.12;60.60;100807.70;105445;1276;23072;-63
2022/05/01 00:27:09;;;;;;;28.10;12.00;;;;;;;6.08;60.69;100802.55;105462;1276;22760;-62
2022/05/01 00:29:40;;;;;;;29.50;12.20;;;;;;;6.05;60.78;100804.63;105514;1276;23254;-62
2022/05/01 00:32:12;;;;;;;28.70;12.30;;;;;;;6.03;60.86;100803.02;105441;1275;22571;-63
2022/05/01 00:37:33;;;;;;;33.40;13.00;;;;;;;5.98;60.98;100803.05;105306;1276;22550;-63
2022/05/01 00:40:05;;;;;;;30.30;11.80;;;;;;;5.96;61.13;100803.36;105488;1276;22544;-63
2022/05/01 00:42:36;;;;;;;28.70;11.70;;;;;;;5.93;61.10;100802.96;105372;1276;25431;-62
2022/05/01 00:45:10;;;;;;;28.60;12.20;;;;;;;5.91;61.03;100797.95;105311;1276;25232;-62
2022/05/01 00:47:42;;;;;;;32.90;13.00;;;;;;;5.89;61.13;100794.90;105394;1274;24277;-61
2022/05/01 00:50:14;;;;;;;27.10;12.30;;;;;;;5.88;61.02;100797.92;105420;1273;22626;-63
2022/05/01 00:52:46;;;;;;;32.30;11.60;;;;;;;5.87;60.88;100799.23;105696;1276;22539;-62
2022/05/01 00:55:18;;;;;;;29.50;12.20;;;;;;;5.85;60.92;100797.77;105518;1276;22536;-62
2022/05/01 00:57:51;;;;;;;29.90;12.90;;;;;;;5.85;61.13;100794.68;105373;1276;22572;-63
2022/05/01 01:00:22;;;;;;;29.40;12.80;;;;;;;5.82;61.29;100798.45;105488;1276;22800;-62
2022/05/01 01:02:54;;;;;;;34.30;12.50;;;;;;;5.80;61.29;100799.61;105669;1276;24311;-62
2022/05/01 01:05:26;;;;;;;33.40;14.10;;;;;;;5.77;61.54;100796.27;105501;1276;22555;-61
2022/05/01 01:08:00;;;;;;;33.80;14.30;;;;;;;5.74;61.64;100797.37;105360;1276;23126;-62
2022/05/01 01:10:31;;;;;;;36.70;15.30;;;;;;;5.72;61.46;100796.87;105501;1274;23981;-63
2022/05/01 01:13:03;;;;;;;32.70;13.40;;;;;;;5.71;61.60;100796.56;105709;1276;25469;-62
2022/05/01 01:15:37;;;;;;;40.90;16.80;;;;;;;5.69;61.80;100797.00;105477;1275;22587;-62
2022/05/01 01:18:09;;;;;;;38.50;16.90;;;;;;;5.67;62.09;100796.98;105494;1276;22595;-63
2022/05/01 01:20:43;;;;;;;36.70;16.10;;;;;;;5.65;62.07;100799.73;105480;1274;22557;-63
2022/05/01 01:23:14;;;;;;;33.50;14.80;;;;;;;5.62;62.25;100797.73;105535;1276;26525;-62
2022/05/01 01:25:48;;;;;;;36.80;15.00;;;;;;;5.59;62.34;100802.39;105493;1275;22557;-63
2022/05/01 01:28:22;;;;;;;38.30;14.20;;;;;;;5.56;62.80;100796.52;105463;1275;23076;-63
2022/05/01 01:33:45;;;;;;;30.30;12.50;;;;;;;5.46;64.17;100795.59;105372;1275;22618;-62
2022/05/01 01:36:18;;;;;;;32.30;11.00;;;;;;;5.42;64.25;100797.27;105425;1275;22573;-62
2022/05/01 01:38:50;;;;;;;32.60;13.40;;;;;;;5.37;64.42;100799.17;105415;1275;24274;-61
2022/05/01 01:41:26;;;;;;;39.20;14.70;;;;;;;5.35;64.43;100798.37;105318;1276;24437;-61
2022/05/01 01:43:59;;;;;;;43.20;12.50;;;;;;;5.34;64.36;100794.29;105398;1276;24394;-62
2022/05/01 01:46:34;;;;;;;41.20;14.00;;;;;;;5.33;64.57;100798.88;105384;1276;22649;-62
2022/05/01 01:49:11;;;;;;;35.30;11.30;;;;;;;5.33;64.37;100795.48;105606;1276;25389;-62
2022/05/01 01:51:42;;;;;;;35.40;13.80;;;;;;;5.32;64.44;100794.80;105477;1276;25337;-61
2022/05/01 01:54:13;;;;;;;33.50;11.80;;;;;;;5.31;64.52;100793.01;105510;1276;24267;-62
2022/05/01 01:56:45;;;;;;;32.00;11.90;;;;;;;5.29;64.40;100796.05;105404;1276;22586;-61
2022/05/01 01:59:17;;;;;;;32.30;11.30;;;;;;;5.28;64.55;100790.77;105419;1274;22528;-61
2022/05/01 02:01:48;;;;;;;33.10;11.00;;;;;;;5.24;64.42;100790.88;105357;1276;25217;-62
2022/05/01 02:04:19;;;;;;;32.80;12.90;;;;;;;5.22;64.46;100794.95;105454;1275;24270;-62
2022/05/01 02:06:51;;;;;;;34.20;11.40;;;;;;;5.21;64.33;100793.55;105323;1276;24206;-61
2022/05/01 02:09:25;;;;;;;30.10;11.80;;;;;;;5.21;64.25;100789.84;105448;1275;25266;-61
2022/05/01 02:11:57;;;;;;;34.00;10.60;;;;;;;5.20;64.17;100793.10;105564;1275;24516;-62
2022/05/01 02:14:30;;;;;;;30.20;12.20;;;;;;;5.19;64.23;100791.45;105358;1276;22576;-62
2022/05/01 02:17:02;;;;;;;28.00;10.70;;;;;;;5.17;64.29;100790.08;105492;1276;25334;-61
2022/05/01 02:19:34;;;;;;;36.40;12.30;;;;;;;5.15;64.39;100793.91;105505;1275;22621;-61
2022/05/01 02:22:06;;;;;;;29.20;11.80;;;;;;;5.13;64.46;100790.95;105467;1276;22595;-60
2022/05/01 02:24:38;;;;;;;30.70;11.60;;;;;;;5.11;64.35;100792.80;105487;1276;22568;-62
2022/05/01 02:27:09;;;;;;;31.80;12.30;;;;;;;5.09;64.57;100788.19;105466;1275;22592;-60
2022/05/01 02:29:42;;;;;;;26.40;11.00;;;;;;;5.06;64.34;100788.27;105547;1275;22626;-61
2022/05/01 02:32:14;;;;;;;33.20;12.80;;;;;;;5.05;64.64;100785.92;105418;1276;22537;-61
2022/05/01 02:34:46;;;;;;;31.20;10.70;;;;;;;5.01;64.53;100788.13;105367;1275;24555;-62
2022/05/01 02:37:17;;;;;;;28.20;11.20;;;;;;;4.98;64.34;100786.70;105522;1276;22525;-61
2022/05/01 02:39:50;;;;;;;29.50;10.40;;;;;;;4.96;64.49;100785.64;105445;1276;22804;-62
2022/05/01 02:42:21;;;;;;;27.00;11.60;;;;;;;4.92;64.54;100784.58;105401;1276;25511;-61
2022/05/01 02:44:53;;;;;;;30.20;10.50;;;;;;;4.91;64.28;100782.73;105425;1275;22601;-62
2022/05/01 02:47:24;;;;;;;28.60;10.90;;;;;;;4.89;64.07;100784.52;105393;1276;24439;-62
2022/05/01 02:49:57;;;;;;;31.30;10.90;;;;;;;4.88;64.25;100778.11;105430;1275;22558;-60
2022/05/01 02:52:29;;;;;;;25.80;11.00;;;;;;;4.87;64.33;100780.61;105436;1276;22531;-62
2022/05/01 02:55:00;;;;;;;30.40;11.70;;;;;;;4.85;64.07;100780.58;105602;1276;22618;-62
2022/05/01 02:57:32;;;;;;;28.50;11.10;;;;;;;4.83;64.18;100776.98;105649;1274;25313;-61
2022/05/01 03:00:06;;;;;;;30.80;12.40;;;;;;;4.80;64.58;100773.48;105438;1276;24248;-61
2022/05/01 03:02:37;;;;;;;28.70;10.60;;;;;;;4.75;65.18;100773.51;105718;1276;25393;-62
2022/05/01 03:05:10;;;;;;;25.50;11.50;;;;;;;4.68;65.02;100774.20;105543;1274;23805;-61
2022/05/01 03:07:41;;;;;;;29.60;11.80;;;;;;;4.63;65.08;100777.39;105613;1274;25246;-61
2022/05/01 03:10:13;;;;;;;27.90;10.40;;;;;;;4.58;65.10;100779.06;105488;1275;22717;-61
2022/05/01 03:12:44;;;;;;;32.40;13.20;;;;;;;4.56;64.97;100778.32;105635;1276;22808;-61
2022/05/01 03:15:15;;;;;;;31.10;12.50;;;;;;;4.54;64.93;100778.98;105540;1275;25162;-60
2022/05/01 03:23:25;;;;;;;32.40;11.60;;;;;;;4.44;65.14;100784.23;105382;1276;22561;-60
2022/05/01 03:25:58;;;;;;;29.90;12.60;;;;;;;4.41;65.20;100780.27;105339;1276;26538;-61
2022/05/01 03:28:30;;;;;;;28.80;11.20;;;;;;;4.39;64.84;100779.19;105669;1275;22562;-62
2022/05/01 03:31:03;;;;;;;29.50;12.80;;;;;;;4.38;64.66;100778.27;105435;1276;22537;-60
2022/05/01 03:33:35;;;;;;;32.10;12.50;;;;;;;4.38;64.88;100779.23;105544;1275;24323;-61
2022/05/01 03:36:08;;;;;;;32.60;12.10;;;;;;;4.37;64.98;100776.48;105345;1275;22601;-61
2022/05/01 03:38:41;;;;;;;29.10;11.90;;;;;;;4.34;65.11;100772.59;105368;1276;24240;-61
2022/05/01 03:41:16;;;;;;;28.90;13.20;;;;;;;4.33;64.94;100769.14;105433;1276;24400;-61
2022/05/01 03:43:48;;;;;;;32.80;13.00;;;;;;;4.32;65.11;100769.38;105399;1274;24444;-60
2022/05/01 03:46:20;;;;;;;29.50;12.80;;;;;;;4.33;65.18;100768.73;105497;1275;24330;-60
2022/05/01 03:48:52;;;;;;;30.70;11.80;;;;;;;4.33;65.39;100769.29;105647;1276;24183;-60
2022/05/01 03:51:23;;;;;;;29.60;13.00;;;;;;;4.32;65.62;100770.02;105489;1276;23101;-60
2022/05/01 03:53:55;;;;;;;29.60;12.30;;;;;;;4.30;66.07;100772.02;105456;1274;25258;-61
2022/05/01 03:56:27;;;;;;;26.40;11.30;;;;;;;4.25;66.75;100770.86;105461;1276;22539;-61
2022/05/01 03:58:59;;;;;;;24.70;10.40;;;;;;;4.15;67.52;100774.52;105423;1274;25373;-61
2022/05/01 04:01:30;;;;;;;28.00;10.40;;;;;;;4.05;67.83;100780.14;105477;1275;25397;-60
2022/05/01 04:04:02;;;;;;;24.30;10.00;;;;;;;4.01;68.08;100781.56;105512;1275;22798;-61
2022/05/01 04:06:34;;;;;;;25.70;10.30;;;;;;;3.98;68.03;100782.01;105443;1276;23028;-60
2022/05/01 04:09:05;;;;;;;23.90;9.90;;;;;;;3.97;67.81;100778.71;105556;1275;24277;-60
2022/05/01 04:11:38;;;;;;;22.90;9.80;;;;;;;3.98;67.76;100780.11;105499;1274;25321;-60
2022/05/01 04:14:11;;;;;;;30.50;11.00;;;;;;;3.98;67.57;100781.36;105474;1276;25259;-60
2022/05/01 04:16:43;;;;;;;27.40;10.20;;;;;;;4.01;67.25;100782.90;105411;1275;25823;-61
2022/05/01 04:19:15;;;;;;;21.30;8.70;;;;;;;4.04;67.28;100787.42;105455;1275;22705;-61
2022/05/01 04:21:46;;;;;;;26.40;9.50;;;;;;;4.07;67.31;100784.29;105374;1275;25266;-61
2022/05/01 04:24:19;;;;;;;26.00;9.70;;;;;;;4.10;67.38;100781.06;105490;1275;22548;-61
2022/05/01 04:26:50;;;;;;;25.60;9.90;;;;;;;4.14;67.54;100783.38;105415;1275;25189;-60
2022/05/01 04:29:38;;;;;;;22.40;8.70;;;;;;;4.18;67.79;100784.80;105571;1274;22879;-60
2022/05/01 04:32:14;;;;;;;28.20;10.30;;;;;;;4.22;67.79;100789.94;105510;1274;24390;-61
2022/05/01 04:34:45;;;;;;;27.10;10.40;;;;;;;4.27;68.11;100787.95;105434;1275;24427;-61
2022/05/01 04:37:16;;;;;;;23.60;9.50;;;;;;;4.32;68.18;100788.73;105388;1275;24294;-61
2022/05/01 04:39:48;;;;;;;28.10;10.80;;;;;;;4.35;68.38;100789.07;105509;1274;22550;-61
2022/05/01 04:42:21;;;;;;;26.50;9.60;;;;;;;4.40;68.54;100792.92;105460;1274;22567;-58
2022/05/01 04:44:53;;;;;;;30.30;10.50;;;;;;;4.44;69.11;100796.48;105541;1274;22560;-61
2022/05/01 04:47:25;;;;;;;26.30;10.10;;;;;;;4.47;69.52;100800.54;105483;1275;22559;-60
2022/05/01 04:49:57;;;;;;;27.40;12.00;;;;;;;4.48;69.54;100798.30;105470;1275;22589;-59
2022/05/01 04:52:29;;;;;;;26.00;11.20;;;;;;;4.52;69.52;100800.76;105474;1274;25418;-61
2022/05/01 04:55:01;;;;;;;26.10;10.70;;;;;;;4.58;69.72;100797.79;105508;1276;25325;-60
2022/05/01 04:57:32;;;;;;;23.50;10.20;;;;;;;4.64;69.68;100795.52;105649;1275;25444;-60
2022/05/01 05:00:05;;;;;;;23.30;10.00;;;;;;;4.73;69.54;100794.25;105387;1275;22704;-60
2022/05/01 05:02:42;;;;;;;25.30;10.60;;;;;;;4.83;69.57;100793.49;105686;1274;22542;-59
2022/05/01 05:05:14;;;;;;;23.60;9.80;;;;;;;4.93;69.90;100791.92;105561;1274;22603;-60
2022/05/01 05:07:47;;;;;;;25.70;10.00;;;;;;;5.08;69.93;100795.56;105502;1276;24372;-60
2022/05/01 05:10:19;;;;;;;24.60;9.80;;;;;;;5.25;70.20;100793.84;105531;1275;22560;-60
2022/05/01 05:12:51;;;;;;;21.80;8.40;;;;;;;5.41;69.81;100797.84;105393;1276;25364;-59
2022/05/01 05:15:24;;;;;;;25.00;9.30;;;;;;;5.57;69.49;100795.89;105570;1275;24099;-60
2022/05/01 05:17:55;;;;;;;26.60;9.30;;;;;;;5.72;69.25;100796.85;105482;1276;22550;-60
2022/05/01 05:20:28;;;;;;;26.20;10.70;;;;;;;5.85;69.08;100799.48;105487;1275;22751;-60
2022/05/01 05:22:59;;;;;;;27.40;11.30;;;;;;;5.96;69.26;100794.23;105496;1274;25271;-60
2022/05/01 05:25:31;;;;;;;29.50;10.80;;;;;;;6.08;69.23;100793.38;105399;1274;22585;-61
2022/05/01 05:28:06;;;;;;;30.70;13.10;;;;;;;6.21;69.34;100794.55;105656;1274;24236;-61
2022/05/01 05:30:40;;;;;;;26.40;10.60;;;;;;;6.33;69.34;100794.80;106278;1275;24255;-61
2022/05/01 05:33:16;;;;;;;28.80;10.30;;;;;;;6.46;69.20;100803.45;105435;1276;25364;-61
2022/05/01 05:35:48;;;;;;;29.80;10.80;;;;;;;6.58;69.12;100807.15;105571;1276;24402;-61
2022/05/01 05:38:19;;;;;;;27.70;10.70;;;;;;;6.70;69.07;100809.39;105622;1274;25490;-60
2022/05/01 05:40:51;;;;;;;29.00;10.90;;;;;;;6.81;68.94;100810.27;105742;1274;22550;-60
2022/05/01 05:43:22;;;;;;;29.90;10.70;;;;;;;6.92;69.01;100811.36;105627;1276;26502;-62
2022/05/01 05:45:54;;;;;;;27.80;9.50;;;;;;;7.06;69.05;100813.96;105596;1276;25317;-62
2022/05/01 05:48:26;;;;;;;24.90;8.60;;;;;;;7.19;68.44;100813.90;105828;1274;25373;-62
2022/05/01 05:50:58;;;;;;;25.50;8.80;;;;;;;7.34;68.27;100815.91;105608;1276;24274;-61
2022/05/01 05:53:30;;;;;;;24.10;8.10;;;;;;;7.45;67.48;100813.25;105531;1275;24331;-61
2022/05/01 05:56:02;;;;;;;23.20;7.90;;;;;;;7.57;67.48;100816.48;105639;1274;24274;-62
2022/05/01 05:58:34;;;;;;;27.10;9.70;;;;;;;7.68;67.65;100813.63;105617;1273;22845;-60
2022/05/01 06:01:05;;;;;;;24.00;8.00;;;;;;;7.80;68.21;100812.94;105707;1275;22621;-60
2022/05/01 06:03:37;;;;;;;25.80;8.40;;;;;;;7.91;67.87;100817.71;105564;1274;22583;-62
2022/05/01 06:06:09;;;;;;;22.10;6.90;;;;;;;8.04;67.41;100820.58;105616;1274;22703;-61
2022/05/01 06:08:41;;;;;;;20.20;7.40;;;;;;;8.14;67.04;100822.45;105584;1275;22527;-60
2022/05/01 06:11:12;;;;;;;20.20;8.10;;;;;;;8.26;67.00;100820.01;105778;1274;23100;-62
2022/05/01 06:13:44;;;;;;;20.80;7.20;;;;;;;8.37;66.76;100823.21;106054;1276;22581;-63
2022/05/01 06:16:16;;;;;;;20.00;6.00;;;;;;;8.46;66.54;100832.11;105701;1276;25268;-62
2022/05/01 06:18:47;;;;;;;21.00;7.50;;;;;;;8.59;66.34;100831.96;105520;1276;22557;-62
2022/05/01 06:21:19;;;;;;;16.60;5.60;;;;;;;8.69;65.66;100831.08;105555;1276;22532;-61
2022/05/01 06:23:50;;;;;;;18.20;6.80;;;;;;;8.80;65.68;100832.66;105568;1276;24286;-61
2022/05/01 06:26:21;;;;;;;21.60;5.90;;;;;;;8.91;65.54;100830.65;105573;1274;24433;-61
2022/05/01 06:28:53;;;;;;;21.90;6.70;;;;;;;9.03;65.45;100828.71;105712;1274;22569;-60
2022/05/01 06:31:25;;;;;;;21.80;7.20;;;;;;;9.15;65.36;100828.73;105625;1275;22568;-60
2022/05/01 06:33:57;;;;;;;20.50;6.90;;;;;;;9.28;65.20;100829.02;105667;1274;25325;-62
2022/05/01 06:36:31;;;;;;;16.10;5.90;;;;;;;9.39;64.92;100831.15;105731;1275;22564;-62
2022/05/01 06:39:03;;;;;;;21.00;7.20;;;;;;;9.49;64.72;100831.16;105882;1275;26287;-61
2022/05/01 06:41:36;;;;;;;21.30;7.70;;;;;;;9.57;64.40;100834.59;105696;1274;22559;-60
2022/05/01 06:44:08;;;;;;;20.50;7.40;;;;;;;9.67;64.60;100829.71;105632;1274;25329;-62
2022/05/01 06:46:39;;;;;;;20.20;7.00;;;;;;;9.78;64.33;100830.86;105628;1276;24366;-61
2022/05/01 06:49:11;;;;;;;21.40;6.60;;;;;;;9.89;64.06;100835.79;105677;1275;22562;-62
2022/05/01 06:51:42;;;;;;;20.00;6.90;;;;;;;9.97;63.91;100831.61;105600;1275;27901;-62
2022/05/01 06:54:14;;;;;;;20.90;7.40;;;;;;;10.07;63.70;100832.50;105604;1275;25402;-62
2022/05/01 06:56:45;;;;;;;20.10;6.30;;;;;;;10.17;63.43;100831.77;105642;1274;22555;-62
2022/05/01 06:59:18;;;;;;;19.60;6.90;;;;;;;10.26;63.43;100835.23;105692;1274;22615;-62
2022/05/01 07:01:49;;;;;;;17.30;6.00;;;;;;;10.36;63.11;100836.15;105567;1276;22559;-62
2022/05/01 07:04:21;;;;;;;19.60;6.30;;;;;;;10.46;62.86;100838.65;105754;1275;22601;-62
2022/05/01 07:06:53;;;;;;;20.80;6.90;;;;;;;10.58;62.63;100834.31;105420;1276;25746;-62
2022/05/01 07:09:27;;;;;;;17.70;6.60;;;;;;;10.71;62.41;100835.45;105816;1275;22546;-62
2022/05/01 07:11:59;;;;;;;18.20;6.80;;;;;;;10.84;61.88;100840.05;105583;1274;22537;-62
2022/05/01 07:14:31;;;;;;;20.00;6.80;;;;;;;10.96;61.56;100836.23;105590;1275;24220;-62
2022/05/01 07:17:02;;;;;;;18.90;6.40;;;;;;;11.12;62.05;100837.86;105727;1276;23073;-62
2022/05/01 07:19:34;;;;;;;18.60;7.00;;;;;;;11.32;61.48;100835.71;105668;1274;22688;-61
2022/05/01 07:22:08;;;;;;;24.10;7.20;;;;;;;11.50;61.02;100831.23;105829;1274;23547;-61
2022/05/01 07:24:39;;;;;;;20.30;6.10;;;;;;;11.66;60.72;100828.10;106670;1275;23020;-62
2022/05/01 07:27:11;;;;;;;17.60;7.40;;;;;;;11.82;60.50;100824.47;105662;1273;22615;-61
2022/05/01 07:29:43;;;;;;;20.10;6.60;;;;;;;11.97;60.31;100823.09;105540;1274;25390;-62
2022/05/01 07:32:15;;;;;;;18.70;7.30;;;;;;;12.09;59.64;100826.72;105473;1276;24407;-62
2022/05/01 07:34:47;;;;;;;21.00;7.70;;;;;;;12.18;59.49;100825.30;105729;1276;24417;-61
2022/05/01 07:37:20;;;;;;;22.60;7.00;;;;;;;12.26;59.25;100824.42;105924;1274;24176;-63
2022/05/01 07:39:54;;;;;;;19.50;6.90;;;;;;;12.34;59.14;100824.29;105593;1274;22551;-62
2022/05/01 07:42:26;;;;;;;19.50;7.40;;;;;;;12.41;58.86;100823.82;107427;1274;22692;-61
2022/05/01 07:44:57;;;;;;;19.40;7.60;;;;;;;12.49;58.48;100823.09;105564;1275;22719;-62
2022/05/01 07:47:29;;;;;;;20.90;6.30;;;;;;;12.57;58.41;100823.19;105622;1276;22558;-62
2022/05/01 07:50:01;;;;;;;20.10;7.40;;;;;;;12.66;58.21;100824.19;105703;1276;22559;-62
2022/05/01 07:52:33;;;;;;;18.50;6.80;;;;;;;12.78;58.04;100824.58;105671;1275;22508;-62
2022/05/01 07:55:06;;;;;;;18.20;6.70;;;;;;;12.91;57.95;100824.83;105665;1275;22740;-63
2022/05/01 07:57:38;;;;;;;20.40;7.40;;;;;;;13.01;57.45;100819.38;105733;1276;26571;-61
2022/05/01 08:00:13;;;;;;;20.80;7.70;;;;;;;13.13;57.36;100822.92;105717;1275;22613;-62
2022/05/01 08:05:34;;;;;;;21.50;6.30;;;;;;;13.36;56.95;100820.86;105506;1276;25538;-63
2022/05/01 08:08:07;;;;;;;16.00;6.70;;;;;;;13.42;55.87;100815.92;107788;1275;22559;-63
2022/05/01 08:10:38;;;;;;;18.50;6.10;;;;;;;13.48;55.73;100816.27;105782;1274;22561;-63
2022/05/01 08:13:10;;;;;;;17.40;7.20;;;;;;;13.54;55.56;100813.12;105623;1274;22591;-63
2022/05/01 08:15:42;;;;;;;18.00;6.70;;;;;;;13.61;55.44;100808.48;105653;1274;23979;-63
2022/05/01 08:21:07;;;;;;;23.30;7.00;;;;;;;13.82;55.06;100807.67;105478;1276;24436;-63
2022/05/01 08:23:41;;;;;;;20.10;6.20;;;;;;;13.90;54.13;100807.73;105861;1276;22627;-63
2022/05/01 08:26:14;;;;;;;21.10;7.00;;;;;;;13.94;53.92;100803.05;105847;1276;24405;-63
2022/05/01 08:28:47;;;;;;;19.70;6.50;;;;;;;14.01;53.85;100802.69;105917;1276;25272;-63
2022/05/01 08:31:18;;;;;;;18.80;6.20;;;;;;;14.08;53.70;100795.84;105564;1276;24363;-63
2022/05/01 08:33:50;;;;;;;19.80;6.90;;;;;;;14.16;54.16;100793.41;105645;1274;22538;-63
2022/05/01 08:36:22;;;;;;;17.90;6.50;;;;;;;14.27;53.83;100794.38;106004;1274;24460;-62
2022/05/01 08:38:54;;;;;;;14.30;5.20;;;;;;;14.37;53.33;100794.69;105761;1274;25139;-63
2022/05/01 08:41:30;;;;;;;16.60;5.50;;;;;;;14.49;53.25;100793.55;105573;1276;22652;-62
2022/05/01 08:44:02;;;;;;;18.60;6.80;;;;;;;14.61;53.02;100788.52;105503;1276;23310;-64
2022/05/01 08:46:56;;;;;;;18.20;6.00;;;;;;;14.72;52.63;100787.27;105885;1276;24305;-63
2022/05/01 08:49:29;;;;;;;21.20;6.50;;;;;;;14.81;52.10;100785.52;105509;1274;22580;-63
2022/05/01 08:52:04;;;;;;;17.30;6.30;;;;;;;14.89;51.96;100777.38;105861;1274;22599;-63
2022/05/01 08:54:35;;;;;;;18.20;4.70;;;;;;;14.98;51.62;100780.08;105519;1276;22565;-63
2022/05/01 08:57:08;;;;;;;18.20;5.60;;;;;;;15.08;51.51;100779.77;105615;1274;22535;-63
2022/05/01 08:59:40;;;;;;;15.70;5.60;;;;;;;15.23;51.62;100782.25;105522;1275;25350;-63
2022/05/01 09:02:13;;;;;;;12.20;4.10;;;;;;;15.38;50.88;100782.55;105482;1276;22564;-63
2022/05/01 09:04:45;;;;;;;14.10;3.70;;;;;;;15.48;50.20;100778.70;105437;1275;24255;-64
2022/05/01 09:07:17;;;;;;;14.40;4.70;;;;;;;15.54;49.68;100773.98;105697;1274;24584;-63
2022/05/01 09:09:51;;;;;;;15.80;4.80;;;;;;;15.61;49.35;100775.12;105469;1274;25422;-65
2022/05/01 09:15:14;;;;;;;15.00;5.30;;;;;;;15.90;49.74;100773.46;105357;1276;22622;-63
2022/05/01 09:18:02;;;;;;;12.50;4.10;;;;;;;16.02;49.18;100768.76;105689;1276;22560;-63
2022/05/01 09:20:34;;;;;;;13.60;4.10;;;;;;;16.13;48.62;100771.23;105651;1276;24238;-62
2022/05/01 09:23:06;;;;;;;14.00;4.10;;;;;;;16.23;48.14;100771.43;105506;1276;22554;-63
2022/05/01 09:25:38;;;;;;;10.20;3.00;;;;;;;16.35;47.31;100767.58;105854;1276;22534;-63
2022/05/01 09:28:23;;;;;;;14.90;3.80;;;;;;;16.41;47.07;100761.35;105699;1276;23071;-63
2022/05/01 09:30:55;;;;;;;14.20;3.70;;;;;;;16.49;47.32;100760.33;105462;1275;23395;-64
2022/05/01 09:33:36;;;;;;;10.30;2.70;;;;;;;16.58;47.13;100757.50;105639;1274;24318;-63
2022/05/01 09:36:10;;;;;;;14.30;2.90;;;;;;;16.70;46.73;100755.98;105707;1274;22553;-64
2022/05/01 09:38:43;;;;;;;12.10;3.00;;;;;;;16.79;46.50;100754.63;105703;1274;25269;-64
2022/05/01 09:41:17;;;;;;;10.90;3.60;;;;;;;16.87;46.17;100750.48;105563;1274;25412;-62
2022/05/01 09:43:49;;;;;;;12.80;3.60;;;;;;;16.98;46.47;100748.03;101587;1276;5444051;-63
2022/05/01 09:46:22;;;;;;;12.70;3.50;;;;;;;17.05;45.76;100751.98;105580;1274;22710;-64
2022/05/01 09:49:02;;;;;;;13.30;3.10;;;;;;;17.07;45.23;100743.06;105502;1276;24273;-63
2022/05/01 09:51:35;;;;;;;14.30;3.80;;;;;;;17.11;45.02;100745.52;106036;1276;22572;-64
2022/05/01 09:54:08;;;;;;;12.10;3.90;;;;;;;17.12;44.45;100749.23;105767;1276;25271;-63
2022/05/01 09:56:51;;;;;;;11.10;3.60;;;;;;;17.11;44.17;100746.75;105641;1275;25310;-64
2022/05/01 09:59:24;;;;;;;16.60;3.40;;;;;;;17.12;43.96;100745.58;105483;1276;22522;-64
2022/05/01 10:02:02;;;;;;;11.10;3.40;;;;;;;17.14;43.59;100743.48;108845;1274;22564;-64
2022/05/01 10:04:35;;;;;;;15.10;3.20;;;;;;;17.17;43.39;100744.45;105419;1274;25387;-64
2022/05/01 10:07:09;;;;;;;9.50;3.10;;;;;;;17.22;43.53;100743.02;105495;1276;22593;-63
2022/05/01 10:09:45;;;;;;;13.80;3.70;;;;;;;17.29;43.08;100742.82;105257;1276;23145;-65
2022/05/01 10:12:19;;;;;;;11.80;3.70;;;;;;;17.35;43.20;100740.19;105661;1276;22560;-64
2022/05/01 10:14:51;;;;;;;10.90;3.00;;;;;;;17.43;42.77;100739.21;105435;1276;22670;-65
2022/05/01 10:17:23;;;;;;;14.60;3.50;;;;;;;17.48;42.00;100734.54;105532;1275;22543;-64
2022/05/01 10:19:55;;;;;;;13.40;4.70;;;;;;;17.50;41.74;100727.64;105527;1276;25575;-64
2022/05/01 10:22:28;;;;;;;14.50;4.50;;;;;;;17.56;41.65;100731.21;105713;1276;24078;-65
2022/05/01 10:25:00;;;;;;;11.10;3.00;;;;;;;17.63;41.80;100731.67;105655;1274;22691;-64
2022/05/01 10:27:41;;;;;;;14.80;4.00;;;;;;;17.71;41.17;100725.55;105636;1276;22621;-64
2022/05/01 10:33:41;;;;;;;8.90;2.50;;;;;;;17.83;40.82;100725.21;105473;1274;22718;-64
2022/05/01 10:36:35;;;;;;;10.10;3.00;;;;;;;17.92;40.37;100719.89;105592;1274;22630;-65
2022/05/01 10:39:11;;;;;;;10.00;3.20;;;;;;;17.93;39.83;100713.10;105645;1274;22901;-64
2022/05/01 10:41:47;;;;;;;16.20;6.10;;;;;;;17.98;40.09;100714.06;105823;1274;22572;-64
2022/05/01 10:44:36;;;;;;;16.00;4.70;;;;;;;18.04;39.29;100711.98;105540;1276;25546;-65
2022/05/01 10:47:16;;;;;;;10.80;3.40;;;;;;;18.07;39.08;100709.47;105573;1276;26394;-66
2022/05/01 10:49:49;;;;;;;12.10;3.60;;;;;;;18.08;38.88;100705.91;105674;1276;24375;-66
2022/05/01 10:52:22;;;;;;;11.20;2.80;;;;;;;18.08;38.73;100701.30;105758;1276;22617;-66
2022/05/01 10:54:56;;;;;;;11.00;2.50;;;;;;;18.12;38.91;100691.98;105767;1278;22556;-66
2022/05/01 10:57:28;;;;;;;9.40;2.20;;;;;;;18.18;39.05;100696.20;105628;1276;25351;-65
2022/05/01 11:00:11;;;;;;;8.00;2.40;;;;;;;18.26;39.05;100692.27;105611;1277;22577;-66
2022/05/01 11:02:48;;;;;;;11.10;3.30;;;;;;;18.36;39.06;100695.03;105720;1276;26686;-65
2022/05/01 11:05:47;;;;;;;10.60;2.60;;;;;;;18.42;39.09;100692.86;105813;1277;22609;-65
2022/05/01 11:08:23;;;;;;;11.90;3.40;;;;;;;18.49;38.76;100693.40;105529;1276;24448;-65
2022/05/01 11:10:58;;;;;;;8.20;2.80;;;;;;;18.55;38.62;100690.12;105587;1276;24336;-65
2022/05/01 11:13:33;;;;;;;12.00;3.60;;;;;;;18.60;38.67;100688.76;105497;1278;22567;-67
2022/05/01 11:16:07;;;;;;;13.20;4.30;;;;;;;18.64;38.10;100684.73;105541;1277;22543;-65
2022/05/01 11:18:55;;;;;;;12.00;3.30;;;;;;;18.64;37.82;100683.59;105609;1276;22540;-65
2022/05/01 11:21:39;;;;;;;11.00;3.30;;;;;;;18.67;37.99;100686.50;105883;1276;24243;-65
2022/05/01 11:24:13;;;;;;;9.40;2.90;;;;;;;18.80;37.63;100684.45;105619;1278;22543;-68
2022/05/01 11:27:15;;;;;;;10.60;3.10;;;;;;;18.84;37.34;100681.54;105570;1276;24278;-65
2022/05/01 11:30:22;;;;;;;10.30;3.10;;;;;;;18.89;37.32;100681.13;105678;1276;22559;-64
2022/05/01 11:33:00;;;;;;;9.30;2.90;;;;;;;18.99;37.52;100679.38;105803;1276;25629;-65
2022/05/01 11:36:04;;;;;;;10.10;2.80;;;;;;;19.07;36.91;100678.20;105649;1276;25328;-66
2022/05/01 11:38:55;;;;;;;11.10;2.80;;;;;;;19.12;36.48;100670.75;105933;1276;22629;-65
2022/05/01 11:41:43;;;;;;;14.80;3.90;;;;;;;19.15;36.34;100671.30;105552;1276;24297;-65
2022/05/01 11:44:25;;;;;;;7.20;2.40;;;;;;;19.17;36.54;100674.58;105503;1276;22540;-66
2022/05/01 11:47:00;;;;;;;12.80;3.00;;;;;;;19.20;36.17;100670.94;105737;1279;25515;-66
2022/05/01 11:49:39;;;;;;;10.10;3.00;;;;;;;19.15;35.84;100663.06;105636;1279;22560;-66
2022/05/01 11:52:11;;;;;;;9.40;2.20;;;;;;;19.11;36.31;100668.40;105578;1277;22541;-65
2022/05/01 11:54:48;;;;;;;10.70;3.10;;;;;;;19.14;35.97;100667.86;105452;1277;22578;-65
2022/05/01 12:03:06;;;;;;;11.20;2.50;;;;;;;19.14;35.60;100661.58;105462;1281;22503;-65
2022/05/01 12:05:46;;;;;;;11.00;3.60;;;;;;;19.17;35.76;100654.97;105961;1277;25257;-65
2022/05/01 12:08:22;;;;;;;10.90;3.60;;;;;;;19.24;35.63;100652.73;105623;1277;22540;-67
2022/05/01 12:10:55;;;;;;;10.50;3.60;;;;;;;19.31;35.48;100650.56;105593;1277;24299;-66